McDonaldsville, Ohio
Current Conditions -  °F | °C
As of 12:51 AM on Wednesday 22 Oct 2014 (Local Time) from KCAK Reporting Station
Overcast Overcast  
Wind Chill: 43°   Ceiling: 700
Heat Index: 48°   Visibility: 10mi
Dew Point: 44°   Wind: 13mph
Humidity: 86%   Direction: 10°N
Pressure: 30.08"   Gusts: NA
Location:  40.9014°N, 81.4333°W
Report Text: KCAK 220451Z 01011KT 10SM BKN007 OVC012 09/07 A3008 RMK AO2 CIG 005V009 SLP190 T00890067 401110083 $
Loading
Personal Weather Stations






























Interactive Weather Map
Tropical Storm Tracking
New forecast layout! Learn more

10-Day Weather Forecast

Advertisements
Track Severe Weather on mobile